createdAt,value
2022-09-15T00:04:52.512Z,17
2022-09-15T00:14:52.533Z,16.9
2022-09-15T00:24:52.515Z,16.9
2022-09-15T00:34:52.462Z,16.9
2022-09-15T00:44:52.477Z,16.9
2022-09-15T00:54:52.420Z,16.9
2022-09-15T01:04:57.426Z,16.8
2022-09-15T01:14:52.412Z,16.7
2022-09-15T01:24:52.364Z,16.7
2022-09-15T01:34:52.375Z,16.7
2022-09-15T01:44:52.369Z,16.6
2022-09-15T01:54:52.305Z,16.7
2022-09-15T02:04:52.282Z,16.6
2022-09-15T02:14:52.301Z,16.6
2022-09-15T02:24:52.254Z,16.6
2022-09-15T02:34:52.267Z,16.6
2022-09-15T02:44:52.244Z,16.6
2022-09-15T02:54:52.185Z,16.6
2022-09-15T03:04:52.175Z,16.6
2022-09-15T03:14:52.185Z,16.6
2022-09-15T03:24:52.127Z,16.6
2022-09-15T03:34:56.383Z,16.5
2022-09-15T03:44:52.121Z,16.4
2022-09-15T03:54:52.070Z,16.2
2022-09-15T04:04:52.045Z,16.1
2022-09-15T04:14:52.070Z,15.9
2022-09-15T04:24:52.019Z,15.7
2022-09-15T04:34:52.023Z,15.7
2022-09-15T04:44:52.006Z,15.6
2022-09-15T04:54:51.956Z,15.6
2022-09-15T05:04:51.941Z,15.4
2022-09-15T05:14:51.922Z,15.4
2022-09-15T05:24:51.933Z,15.5
2022-09-15T05:34:51.908Z,15.4
2022-09-15T05:44:51.870Z,15.4
2022-09-15T05:54:55.734Z,15.5
2022-09-15T06:04:51.826Z,15.7
2022-09-15T06:14:51.813Z,15.9
2022-09-15T06:24:51.828Z,16.1
2022-09-15T06:34:51.777Z,16.3
2022-09-15T06:44:51.748Z,16.5
2022-09-15T06:54:51.765Z,16.7
2022-09-15T07:04:51.743Z,16.9
2022-09-15T07:14:51.698Z,16.9
2022-09-15T07:24:51.711Z,17.1
2022-09-15T07:34:52.950Z,17.2
2022-09-15T07:44:51.639Z,17.4
2022-09-15T07:54:51.668Z,17.9
2022-09-15T08:04:51.632Z,18.3
2022-09-15T08:14:51.609Z,18.5
2022-09-15T08:24:51.609Z,19
2022-09-15T08:34:51.537Z,19.5
2022-09-15T08:44:51.633Z,20.1
2022-09-15T08:54:51.540Z,20.6
2022-09-15T09:04:51.483Z,21.2
2022-09-15T09:14:51.473Z,21.7
2022-09-15T09:24:51.474Z,21.6
2022-09-15T09:34:51.428Z,21.5
2022-09-15T09:44:51.442Z,21.9
2022-09-15T09:54:51.419Z,22.2
2022-09-15T10:04:51.479Z,23.8
2022-09-15T10:14:52.412Z,25.3
2022-09-15T10:24:51.355Z,26.9
2022-09-15T10:34:51.298Z,27.8
2022-09-15T10:44:51.312Z,29.1
2022-09-15T10:54:51.283Z,29.9
2022-09-15T11:04:51.230Z,30.5
2022-09-15T11:14:51.232Z,30.9
2022-09-15T11:24:51.210Z,31.3
2022-09-15T11:34:51.169Z,31.9
2022-09-15T11:44:51.177Z,31.3
2022-09-15T11:54:51.163Z,31.6
2022-09-15T12:04:51.100Z,31.7
2022-09-15T12:14:51.108Z,31.9
2022-09-15T12:24:51.100Z,32.1
2022-09-15T12:34:51.039Z,33.1
2022-09-15T12:44:51.084Z,32.7
2022-09-15T12:54:51.023Z,31.1
2022-09-15T13:04:50.976Z,30.2
2022-09-15T13:14:50.977Z,30.8
2022-09-15T13:24:51.009Z,32.4
2022-09-15T13:35:13.165Z,31.6
2022-09-15T13:44:50.921Z,30.5
2022-09-15T13:54:50.896Z,29.8
2022-09-15T14:04:50.838Z,29.5
2022-09-15T14:14:50.863Z,29.3
2022-09-15T14:24:50.799Z,30.8
2022-09-15T14:34:50.778Z,32.5
2022-09-15T14:54:50.727Z,30.7
2022-09-15T15:04:50.712Z,29.3
2022-09-15T15:14:50.729Z,28.3
2022-09-15T15:24:50.659Z,27.9
2022-09-15T15:34:50.641Z,27.7
2022-09-15T15:44:50.645Z,27.4
2022-09-15T15:54:50.589Z,27.4
2022-09-15T16:04:50.574Z,27.7
2022-09-15T16:14:50.578Z,27.1
2022-09-15T16:24:50.526Z,26.3
2022-09-15T16:34:50.514Z,25.5
2022-09-15T16:44:50.516Z,21.9
2022-09-15T16:54:50.487Z,20.1
2022-09-15T17:04:50.443Z,19.6
2022-09-15T17:14:50.462Z,19.1
2022-09-15T17:24:50.414Z,18.6
2022-09-15T17:34:50.393Z,18.4
2022-09-15T17:44:50.395Z,18.3
2022-09-15T17:54:50.347Z,18.1
2022-09-15T18:04:50.325Z,18
2022-09-15T18:14:50.358Z,17.9
2022-09-15T18:24:50.288Z,17.8
2022-09-15T18:34:50.263Z,17.7
2022-09-15T18:44:50.279Z,17.6
2022-09-15T18:54:50.278Z,17.6
2022-09-15T19:04:50.205Z,17.7
2022-09-15T19:14:50.180Z,17.7
2022-09-15T19:24:50.206Z,17.8
2022-09-15T19:34:50.142Z,17.8
2022-09-15T19:44:50.130Z,17.8
2022-09-15T19:54:50.143Z,17.7
2022-09-15T20:04:50.085Z,17.7
2022-09-15T20:14:50.068Z,17.7
2022-09-15T20:24:50.074Z,17.6
2022-09-15T20:34:50.030Z,17.6
2022-09-15T20:44:50.005Z,17.6
2022-09-15T20:54:50.029Z,17.6
2022-09-15T21:04:49.972Z,17.6
2022-09-15T21:14:49.944Z,17.4
2022-09-15T21:24:49.963Z,17.4
2022-09-15T21:34:49.912Z,17.4
2022-09-15T21:44:49.890Z,17.4
2022-09-15T21:54:49.898Z,17.3
2022-09-15T22:04:49.851Z,17.3
2022-09-15T22:14:49.839Z,17.3
2022-09-15T22:24:49.870Z,17.3
2022-09-15T22:34:49.801Z,17.3
2022-09-15T22:44:49.775Z,17.3
2022-09-15T22:54:49.795Z,17.4
2022-09-15T23:14:49.724Z,17.2
2022-09-15T23:24:49.745Z,17.2
2022-09-15T23:34:49.683Z,17.1
2022-09-15T23:44:49.700Z,17
2022-09-15T23:54:49.683Z,16.8
